createdAt,value
2022-10-03T00:01:48.050Z,101299.00
2022-10-03T00:04:53.372Z,101290.00
2022-10-03T00:07:51.034Z,101306.00
2022-10-03T00:10:53.670Z,101294.00
2022-10-03T00:13:49.529Z,101299.00
2022-10-03T00:16:36.549Z,101308.00
2022-10-03T00:19:30.103Z,101303.00
2022-10-03T00:22:37.136Z,101307.00
2022-10-03T00:25:46.744Z,101314.00
2022-10-03T00:28:26.446Z,101316.00
2022-10-03T00:31:13.425Z,101315.00
2022-10-03T00:33:46.197Z,101322.00
2022-10-03T00:36:38.210Z,101318.00
2022-10-03T00:39:40.823Z,101328.00
2022-10-03T00:42:44.794Z,101323.00
2022-10-03T00:45:34.231Z,101324.00
2022-10-03T00:48:23.753Z,101325.00
2022-10-03T00:51:21.034Z,101324.00
2022-10-03T00:54:04.793Z,101329.00
2022-10-03T00:57:06.695Z,101332.00
2022-10-03T01:00:09.027Z,101332.00
2022-10-03T01:03:22.309Z,101339.00
2022-10-03T01:06:30.854Z,101329.00
2022-10-03T01:09:22.777Z,101317.00
2022-10-03T01:12:02.786Z,101329.00
2022-10-03T01:15:09.583Z,101330.00
2022-10-03T01:18:03.189Z,101339.00
2022-10-03T01:21:12.074Z,101343.00
2022-10-03T01:24:20.416Z,101343.00
2022-10-03T01:27:02.092Z,101339.00
2022-10-03T01:30:14.082Z,101344.00
2022-10-03T01:32:55.524Z,101342.00
2022-10-03T01:36:12.774Z,101342.00
2022-10-03T01:38:45.146Z,101361.00
2022-10-03T01:41:34.476Z,101362.00
2022-10-03T01:44:31.210Z,101363.00
2022-10-03T01:48:02.232Z,101363.00
2022-10-03T01:50:46.610Z,101369.00
2022-10-03T01:53:38.528Z,101365.00
2022-10-03T01:56:52.466Z,101358.00
2022-10-03T01:59:37.337Z,101366.00
2022-10-03T02:02:36.782Z,101364.00
2022-10-03T02:05:17.241Z,101347.00
2022-10-03T02:08:03.407Z,101367.00
2022-10-03T02:10:59.426Z,101374.00
2022-10-03T02:13:41.655Z,101377.00
2022-10-03T02:16:58.302Z,101374.00
2022-10-03T02:19:48.822Z,101369.00
2022-10-03T02:22:58.643Z,101367.00
2022-10-03T02:25:35.504Z,101369.00
2022-10-03T02:28:31.014Z,101380.00
2022-10-03T02:31:46.944Z,101363.00
2022-10-03T02:34:42.521Z,101366.00
2022-10-03T02:37:49.435Z,101378.00
2022-10-03T02:40:45.794Z,101377.00
2022-10-03T02:44:10.766Z,101374.00
2022-10-03T02:47:11.560Z,101369.00
2022-10-03T02:50:27.903Z,101380.00
2022-10-03T02:53:22.860Z,101381.00
2022-10-03T02:56:30.155Z,101396.00
2022-10-03T02:59:45.864Z,101399.00
2022-10-03T03:02:40.230Z,101405.00
2022-10-03T03:05:36.863Z,101397.00
2022-10-03T03:08:28.438Z,101395.00
2022-10-03T03:11:49.340Z,101416.00
2022-10-03T03:14:47.102Z,101407.00
2022-10-03T03:17:36.640Z,101400.00
2022-10-03T03:20:41.156Z,101402.00
2022-10-03T03:23:39.072Z,101409.00
2022-10-03T03:26:28.134Z,101413.00
2022-10-03T03:29:26.392Z,101412.00
2022-10-03T03:32:29.544Z,101411.00
2022-10-03T03:35:29.516Z,101413.00
2022-10-03T03:38:33.782Z,101405.00
2022-10-03T03:41:30.398Z,101417.00
2022-10-03T03:44:25.442Z,101410.00
2022-10-03T03:47:43.301Z,101416.00
2022-10-03T03:50:38.313Z,101424.00
2022-10-03T03:53:27.223Z,101428.00
2022-10-03T03:56:39.744Z,101441.00
2022-10-03T03:59:37.295Z,101434.00
2022-10-03T04:02:34.092Z,101445.00
2022-10-03T04:05:48.519Z,101431.00
2022-10-03T04:09:00.853Z,101436.00
2022-10-03T04:11:53.506Z,101435.00
2022-10-03T04:14:56.851Z,101442.00
2022-10-03T04:18:15.668Z,101439.00
2022-10-03T04:21:24.052Z,101436.00
2022-10-03T04:24:38.543Z,101443.00
2022-10-03T04:27:38.071Z,101448.00
2022-10-03T04:30:20.759Z,101445.00
2022-10-03T04:33:18.772Z,101453.00
2022-10-03T04:36:22.364Z,101446.00
2022-10-03T04:39:29.529Z,101435.00
2022-10-03T04:42:04.101Z,101442.00
2022-10-03T04:44:43.482Z,101445.00
2022-10-03T04:47:40.597Z,101449.00
2022-10-03T04:50:22.812Z,101450.00
2022-10-03T04:53:07.026Z,101450.00
2022-10-03T04:55:56.839Z,101456.00
2022-10-03T04:58:46.824Z,101458.00
2022-10-03T05:01:26.450Z,101449.00
2022-10-03T05:04:25.123Z,101453.00
2022-10-03T05:07:32.934Z,101463.00
2022-10-03T05:10:30.889Z,101457.00
2022-10-03T05:13:12.786Z,101467.00
2022-10-03T05:16:11.175Z,101462.00
2022-10-03T05:19:01.961Z,101466.00
2022-10-03T05:21:56.498Z,101469.00
2022-10-03T05:24:53.408Z,101471.00
2022-10-03T05:27:45.532Z,101479.00
2022-10-03T05:30:36.345Z,101480.00
2022-10-03T05:33:15.362Z,101478.00
2022-10-03T05:36:14.027Z,101481.00
2022-10-03T05:39:31.246Z,101481.00
2022-10-03T05:42:42.872Z,101494.00
2022-10-03T05:45:31.825Z,101494.00
2022-10-03T05:48:33.126Z,101494.00
2022-10-03T05:51:37.149Z,101508.00
2022-10-03T05:54:28.629Z,101481.00
2022-10-03T05:57:50.192Z,101489.00
2022-10-03T06:00:58.135Z,101494.00
2022-10-03T06:04:05.982Z,101500.00
2022-10-03T06:06:51.513Z,101500.00
2022-10-03T06:09:27.103Z,101497.00
2022-10-03T06:12:10.092Z,101515.00
2022-10-03T06:15:22.344Z,101517.00
2022-10-03T06:18:21.429Z,101522.00
2022-10-03T06:21:41.921Z,101533.00
2022-10-03T06:24:41.857Z,101537.00
2022-10-03T06:27:56.105Z,101531.00
2022-10-03T06:31:02.821Z,101535.00
2022-10-03T06:34:20.057Z,101548.00
2022-10-03T06:37:37.554Z,101554.00
2022-10-03T06:40:42.154Z,101551.00
2022-10-03T06:43:42.606Z,101557.00
2022-10-03T06:46:30.605Z,101556.00
2022-10-03T06:49:34.076Z,101552.00
2022-10-03T06:52:31.541Z,101565.00
2022-10-03T06:55:38.222Z,101566.00
2022-10-03T06:58:51.200Z,101566.00
2022-10-03T07:01:57.442Z,101567.00
2022-10-03T07:05:01.711Z,101570.00
2022-10-03T07:07:56.439Z,101567.00
2022-10-03T07:10:41.751Z,101570.00
2022-10-03T07:13:35.622Z,101583.00
2022-10-03T07:16:36.364Z,101586.00
2022-10-03T07:19:36.756Z,101581.00
2022-10-03T07:23:08.296Z,101588.00
2022-10-03T07:26:18.392Z,101588.00
2022-10-03T07:29:27.626Z,101596.00
2022-10-03T07:32:29.246Z,101591.00
2022-10-03T07:35:55.015Z,101600.00
2022-10-03T07:39:03.855Z,101599.00
2022-10-03T07:41:48.243Z,101600.00
2022-10-03T07:44:35.940Z,101609.00
2022-10-03T07:47:59.576Z,101599.00
2022-10-03T07:51:01.182Z,101608.00
2022-10-03T07:54:14.210Z,101613.00
2022-10-03T07:57:38.198Z,101605.00
2022-10-03T08:00:16.961Z,101619.00
2022-10-03T08:03:29.931Z,101621.00
2022-10-03T08:06:14.347Z,101624.00
2022-10-03T08:09:34.979Z,101622.00
2022-10-03T08:12:35.141Z,101626.00
2022-10-03T08:15:53.259Z,101647.00
2022-10-03T08:18:33.129Z,101644.00
2022-10-03T08:21:03.338Z,101645.00
2022-10-03T08:24:12.078Z,101650.00
2022-10-03T08:27:18.239Z,101646.00
2022-10-03T08:30:39.939Z,101645.00
2022-10-03T08:34:09.204Z,101643.00
2022-10-03T08:37:30.067Z,101661.00
2022-10-03T08:40:36.656Z,101662.00
2022-10-03T08:43:56.696Z,101662.00
2022-10-03T08:47:02.484Z,101673.00
2022-10-03T08:50:09.759Z,101665.00
2022-10-03T08:53:07.582Z,101665.00
2022-10-03T08:55:48.389Z,101662.00
2022-10-03T08:59:00.345Z,101660.00
2022-10-03T09:01:58.005Z,101663.00
2022-10-03T09:05:32.420Z,101663.00
2022-10-03T09:08:50.410Z,101660.00
2022-10-03T09:12:06.133Z,101665.00
2022-10-03T09:15:12.149Z,101666.00
2022-10-03T09:18:05.288Z,101674.00
2022-10-03T09:21:28.640Z,101670.00
2022-10-03T09:24:24.819Z,101674.00
2022-10-03T09:27:36.044Z,101662.00
2022-10-03T09:30:14.516Z,101671.00
2022-10-03T09:33:32.397Z,101682.00
2022-10-03T09:36:08.233Z,101675.00
2022-10-03T09:38:58.225Z,101675.00
2022-10-03T09:41:41.815Z,101675.00
2022-10-03T09:44:48.434Z,101676.00
2022-10-03T09:48:02.513Z,101673.00
2022-10-03T09:51:21.697Z,101672.00
2022-10-03T09:54:22.635Z,101678.00
2022-10-03T09:57:25.016Z,101686.00
2022-10-03T10:00:19.225Z,101685.00
2022-10-03T10:03:13.182Z,101679.00
2022-10-03T10:06:12.036Z,101675.00
2022-10-03T10:09:12.636Z,101686.00
2022-10-03T10:12:29.383Z,101690.00
2022-10-03T10:15:18.861Z,101684.00
2022-10-03T10:18:39.967Z,101676.00
2022-10-03T10:22:05.053Z,101672.00
2022-10-03T10:25:28.087Z,101682.00
2022-10-03T10:28:49.861Z,101672.00
2022-10-03T10:32:21.395Z,101668.00
2022-10-03T10:35:28.916Z,101678.00
2022-10-03T10:38:34.715Z,101671.00
2022-10-03T10:42:25.397Z,101670.00
2022-10-03T10:45:39.240Z,101664.00
2022-10-03T10:49:03.911Z,101677.00
2022-10-03T10:52:26.473Z,101669.00
2022-10-03T10:55:47.534Z,101675.00
2022-10-03T10:59:03.001Z,101672.00
2022-10-03T11:02:23.894Z,101670.00
2022-10-03T11:05:42.485Z,101655.00
2022-10-03T11:08:46.113Z,101656.00
2022-10-03T11:12:14.075Z,101667.00
2022-10-03T11:15:19.910Z,101665.00
2022-10-03T11:19:07.092Z,101674.00
2022-10-03T11:22:16.002Z,101689.00
2022-10-03T11:25:16.675Z,101679.00
2022-10-03T11:28:19.304Z,101671.00
2022-10-03T11:31:22.978Z,101682.00
2022-10-03T11:34:34.773Z,101680.00
2022-10-03T11:37:13.400Z,101681.00
2022-10-03T11:40:02.538Z,101674.00
2022-10-03T11:43:03.866Z,101678.00
2022-10-03T11:45:37.251Z,101674.00
2022-10-03T11:48:42.726Z,101682.00
2022-10-03T11:51:18.652Z,101669.00
2022-10-03T11:54:13.072Z,101689.00
2022-10-03T11:56:54.489Z,101682.00
2022-10-03T11:59:47.383Z,101671.00
2022-10-03T12:02:39.350Z,101682.00
2022-10-03T12:05:41.563Z,101672.00
2022-10-03T12:08:48.635Z,101660.00
2022-10-03T12:11:27.525Z,101668.00
2022-10-03T12:14:11.419Z,101663.00
2022-10-03T12:17:15.961Z,101658.00
2022-10-03T12:20:17.672Z,101660.00
2022-10-03T12:22:53.193Z,101653.00
2022-10-03T12:25:37.375Z,101659.00
2022-10-03T12:28:26.811Z,101654.00
2022-10-03T12:31:02.499Z,101651.00
2022-10-03T12:34:19.865Z,101660.00
2022-10-03T12:37:36.378Z,101652.00
2022-10-03T12:40:17.303Z,101681.00
2022-10-03T12:43:24.484Z,101660.00
2022-10-03T12:46:01.866Z,101660.00
2022-10-03T12:48:49.886Z,101669.00
2022-10-03T12:52:09.235Z,101660.00
2022-10-03T12:54:49.499Z,101654.00
2022-10-03T12:58:06.552Z,101653.00
2022-10-03T13:00:57.541Z,101655.00
2022-10-03T13:03:57.576Z,101655.00
2022-10-03T13:07:05.124Z,101647.00
2022-10-03T13:10:11.906Z,101655.00
2022-10-03T13:13:16.089Z,101656.00
2022-10-03T13:16:04.497Z,101658.00
2022-10-03T13:18:56.034Z,101671.00
2022-10-03T13:21:52.790Z,101656.00
2022-10-03T13:24:43.985Z,101657.00
2022-10-03T13:27:29.220Z,101654.00
2022-10-03T13:30:24.551Z,101660.00
2022-10-03T13:33:03.130Z,101651.00
2022-10-03T13:35:59.654Z,101644.00
2022-10-03T13:39:16.041Z,101650.00
2022-10-03T13:42:14.257Z,101649.00
2022-10-03T13:44:54.522Z,101655.00
2022-10-03T13:47:53.895Z,101659.00
2022-10-03T13:50:24.620Z,101662.00
2022-10-03T13:53:13.434Z,101648.00
2022-10-03T13:55:58.590Z,101648.00
2022-10-03T13:58:58.746Z,101666.00
2022-10-03T14:01:45.463Z,101664.00
2022-10-03T14:04:35.606Z,101658.00
2022-10-03T14:07:19.553Z,101659.00
2022-10-03T14:10:28.752Z,101654.00
2022-10-03T14:13:23.657Z,101661.00
2022-10-03T14:16:06.551Z,101656.00
2022-10-03T14:18:56.851Z,101650.00
2022-10-03T14:21:49.725Z,101651.00
2022-10-03T14:24:37.404Z,101658.00
2022-10-03T14:27:40.221Z,101664.00
2022-10-03T14:30:15.339Z,101663.00
2022-10-03T14:33:14.390Z,101664.00
2022-10-03T14:35:55.028Z,101656.00
2022-10-03T14:39:02.359Z,101660.00
2022-10-03T14:41:45.207Z,101656.00
2022-10-03T14:44:37.863Z,101655.00
2022-10-03T14:47:15.960Z,101650.00
2022-10-03T14:49:59.284Z,101647.00
2022-10-03T14:53:07.578Z,101653.00
2022-10-03T14:55:52.679Z,101646.00
2022-10-03T14:58:52.198Z,101653.00
2022-10-03T15:01:26.093Z,101645.00
2022-10-03T15:04:03.744Z,101649.00
2022-10-03T15:06:55.876Z,101660.00
2022-10-03T15:09:46.823Z,101639.00
2022-10-03T15:12:27.002Z,101647.00
2022-10-03T15:15:12.148Z,101639.00
2022-10-03T15:18:03.976Z,101645.00
2022-10-03T15:20:41.853Z,101634.00
2022-10-03T15:23:26.039Z,101650.00
2022-10-03T15:25:55.119Z,101645.00
2022-10-03T15:28:30.649Z,101646.00
2022-10-03T15:31:12.513Z,101649.00
2022-10-03T15:33:40.816Z,101657.00
2022-10-03T15:36:26.787Z,101654.00
2022-10-03T15:39:00.953Z,101656.00
2022-10-03T15:41:51.141Z,101657.00
2022-10-03T15:44:39.210Z,101652.00
2022-10-03T15:47:13.988Z,101653.00
2022-10-03T15:50:33.591Z,101658.00
2022-10-03T15:53:36.398Z,101664.00
2022-10-03T15:56:15.403Z,101653.00
2022-10-03T15:58:50.025Z,101658.00
2022-10-03T16:01:25.096Z,101653.00
2022-10-03T16:04:04.586Z,101649.00
2022-10-03T16:06:49.462Z,101644.00
2022-10-03T16:09:22.035Z,101651.00
2022-10-03T16:11:58.794Z,101654.00
2022-10-03T16:14:59.957Z,101660.00
2022-10-03T16:17:51.093Z,101668.00
2022-10-03T16:20:45.632Z,101671.00
2022-10-03T16:23:26.719Z,101657.00
2022-10-03T16:26:03.730Z,101653.00
2022-10-03T16:28:50.883Z,101651.00
2022-10-03T16:31:29.744Z,101658.00
2022-10-03T16:34:03.666Z,101657.00
2022-10-03T16:36:41.185Z,101657.00
2022-10-03T16:39:33.794Z,101659.00
2022-10-03T16:42:11.953Z,101651.00
2022-10-03T16:44:56.125Z,101652.00
2022-10-03T16:47:34.191Z,101650.00
2022-10-03T16:50:20.698Z,101654.00
2022-10-03T16:52:53.035Z,101658.00
2022-10-03T16:55:39.155Z,101658.00
2022-10-03T16:58:08.851Z,101651.00
2022-10-03T17:01:09.172Z,101650.00
2022-10-03T17:03:53.301Z,101652.00
2022-10-03T17:06:36.041Z,101641.00
2022-10-03T17:09:14.730Z,101649.00
2022-10-03T17:11:48.207Z,101647.00
2022-10-03T17:14:20.599Z,101649.00
2022-10-03T17:17:03.028Z,101652.00
2022-10-03T17:19:42.863Z,101657.00
2022-10-03T17:22:18.153Z,101656.00
2022-10-03T17:25:01.139Z,101653.00
2022-10-03T17:27:40.542Z,101657.00
2022-10-03T17:30:33.221Z,101653.00
2022-10-03T17:33:18.500Z,101655.00
2022-10-03T17:36:43.313Z,101657.00
2022-10-03T17:39:34.478Z,101664.00
2022-10-03T17:42:41.246Z,101654.00
2022-10-03T17:45:47.781Z,101656.00
2022-10-03T17:48:52.746Z,101652.00
2022-10-03T17:51:35.167Z,101659.00
2022-10-03T17:54:11.300Z,101655.00
2022-10-03T17:56:49.316Z,101651.00
2022-10-03T17:59:30.786Z,101661.00
2022-10-03T18:02:13.206Z,101650.00
2022-10-03T18:04:46.103Z,101654.00
2022-10-03T18:07:19.890Z,101661.00
2022-10-03T18:09:54.634Z,101667.00
2022-10-03T18:12:42.217Z,101662.00
2022-10-03T18:15:37.446Z,101670.00
2022-10-03T18:18:29.752Z,101670.00
2022-10-03T18:21:06.181Z,101666.00
2022-10-03T18:24:24.966Z,101663.00
2022-10-03T18:27:39.957Z,101660.00
2022-10-03T18:30:16.938Z,101664.00
2022-10-03T18:32:45.592Z,101647.00
2022-10-03T18:35:17.937Z,101656.00
2022-10-03T18:37:44.575Z,101643.00
2022-10-03T18:40:29.548Z,101652.00
2022-10-03T18:42:58.010Z,101645.00
2022-10-03T18:45:43.131Z,101660.00
2022-10-03T18:48:21.035Z,101650.00
2022-10-03T18:51:13.984Z,101651.00
2022-10-03T18:54:07.494Z,101659.00
2022-10-03T18:56:36.676Z,101660.00
2022-10-03T18:59:33.960Z,101666.00
2022-10-03T19:02:03.509Z,101660.00
2022-10-03T19:04:45.600Z,101657.00
2022-10-03T19:07:22.232Z,101668.00
2022-10-03T19:10:21.950Z,101660.00
2022-10-03T19:13:23.226Z,101671.00
2022-10-03T19:16:27.519Z,101659.00
2022-10-03T19:19:02.129Z,101666.00
2022-10-03T19:21:35.512Z,101672.00
2022-10-03T19:24:14.937Z,101661.00
2022-10-03T19:26:54.283Z,101655.00
2022-10-03T19:29:24.636Z,101654.00
2022-10-03T19:31:53.315Z,101673.00
2022-10-03T19:34:34.362Z,101664.00
2022-10-03T19:37:01.781Z,101666.00
2022-10-03T19:39:32.485Z,101664.00
2022-10-03T19:42:28.337Z,101660.00
2022-10-03T19:44:58.148Z,101659.00
2022-10-03T19:47:38.070Z,101662.00
2022-10-03T19:50:28.217Z,101668.00
2022-10-03T19:52:55.874Z,101659.00
2022-10-03T19:55:37.206Z,101663.00
2022-10-03T19:58:08.902Z,101662.00
2022-10-03T20:00:48.399Z,101656.00
2022-10-03T20:03:29.145Z,101658.00
2022-10-03T20:06:26.524Z,101667.00
2022-10-03T20:09:01.667Z,101661.00
2022-10-03T20:11:51.792Z,101671.00
2022-10-03T20:14:27.222Z,101659.00
2022-10-03T20:17:13.949Z,101667.00
2022-10-03T20:19:54.652Z,101661.00
2022-10-03T20:22:27.370Z,101659.00
2022-10-03T20:24:55.378Z,101657.00
2022-10-03T20:27:45.945Z,101656.00
2022-10-03T20:30:24.023Z,101666.00
2022-10-03T20:32:53.875Z,101649.00
2022-10-03T20:35:29.630Z,101653.00
2022-10-03T20:38:40.464Z,101657.00
2022-10-03T20:41:19.737Z,101656.00
2022-10-03T20:44:27.851Z,101656.00
2022-10-03T20:47:10.098Z,101653.00
2022-10-03T20:49:52.876Z,101662.00
2022-10-03T20:52:25.865Z,101666.00
2022-10-03T20:54:59.666Z,101653.00
2022-10-03T20:57:37.287Z,101664.00
2022-10-03T21:00:25.413Z,101661.00
2022-10-03T21:03:03.884Z,101665.00
2022-10-03T21:05:43.391Z,101659.00
2022-10-03T21:08:40.325Z,101662.00
2022-10-03T21:11:39.472Z,101663.00
2022-10-03T21:14:25.939Z,101670.00
2022-10-03T21:16:54.859Z,101665.00
2022-10-03T21:19:34.076Z,101658.00
2022-10-03T21:22:07.294Z,101660.00
2022-10-03T21:24:47.649Z,101661.00
2022-10-03T21:27:18.306Z,101654.00
2022-10-03T21:29:58.764Z,101656.00
2022-10-03T21:33:17.480Z,101647.00
2022-10-03T21:35:44.929Z,101649.00
2022-10-03T21:38:27.406Z,101659.00
2022-10-03T21:41:17.231Z,101655.00
2022-10-03T21:44:01.798Z,101654.00
2022-10-03T21:46:42.434Z,101643.00
2022-10-03T21:49:40.265Z,101648.00
2022-10-03T21:52:44.624Z,101652.00
2022-10-03T21:55:52.571Z,101649.00
2022-10-03T21:58:51.232Z,101650.00
2022-10-03T22:01:38.470Z,101650.00
2022-10-03T22:04:33.998Z,101638.00
2022-10-03T22:07:14.957Z,101640.00
2022-10-03T22:09:53.725Z,101644.00
2022-10-03T22:12:21.713Z,101653.00
2022-10-03T22:15:08.540Z,101651.00
2022-10-03T22:18:05.240Z,101643.00
2022-10-03T22:20:34.850Z,101633.00
2022-10-03T22:23:44.261Z,101639.00
2022-10-03T22:26:30.419Z,101632.00
2022-10-03T22:29:22.984Z,101631.00
2022-10-03T22:32:31.203Z,101633.00
2022-10-03T22:35:47.627Z,101626.00
2022-10-03T22:38:17.076Z,101634.00
2022-10-03T22:40:47.221Z,101634.00
2022-10-03T22:43:15.488Z,101634.00
2022-10-03T22:45:50.068Z,101634.00
2022-10-03T22:48:27.953Z,101634.00
2022-10-03T22:50:56.296Z,101629.00
2022-10-03T22:53:31.122Z,101626.00
2022-10-03T22:56:00.163Z,101626.00
2022-10-03T22:58:30.475Z,101619.00
2022-10-03T23:01:00.939Z,101631.00
2022-10-03T23:03:34.439Z,101627.00
2022-10-03T23:06:37.632Z,101631.00
2022-10-03T23:09:31.639Z,101629.00
2022-10-03T23:11:58.852Z,101637.00
2022-10-03T23:14:37.586Z,101636.00
2022-10-03T23:18:07.156Z,101634.00
2022-10-03T23:21:08.467Z,101640.00
2022-10-03T23:23:50.546Z,101629.00
2022-10-03T23:26:43.605Z,101630.00
2022-10-03T23:29:16.770Z,101633.00
2022-10-03T23:32:09.460Z,101633.00
2022-10-03T23:34:38.870Z,101638.00
2022-10-03T23:37:11.540Z,101639.00
2022-10-03T23:39:56.067Z,101636.00
2022-10-03T23:42:47.658Z,101649.00
2022-10-03T23:45:20.267Z,101634.00
2022-10-03T23:48:10.202Z,101646.00
2022-10-03T23:50:49.748Z,101640.00
2022-10-03T23:53:46.805Z,101649.00
2022-10-03T23:56:22.816Z,101653.00
2022-10-03T23:59:14.682Z,101653.00
